sensor_id;sensor_type;location;lat;lon;timestamp;temperature;humidity
31695;DHT22;18289;51.330;4.946;2024-01-11T00:02:23;-3.50;99.90
31695;DHT22;18289;51.330;4.946;2024-01-11T00:04:49;-3.30;99.90
31695;DHT22;18289;51.330;4.946;2024-01-11T00:07:15;-3.20;99.90
31695;DHT22;18289;51.330;4.946;2024-01-11T00:12:09;-3.40;99.90
31695;DHT22;18289;51.330;4.946;2024-01-11T00:14:35;-3.30;99.90
31695;DHT22;18289;51.330;4.946;2024-01-11T00:17:01;-3.40;99.90
31695;DHT22;18289;51.330;4.946;2024-01-11T00:19:27;-3.50;99.90
31695;DHT22;18289;51.330;4.946;2024-01-11T00:21:53;-3.50;99.90
31695;DHT22;18289;51.330;4.946;2024-01-11T00:24:19;-3.40;99.90
31695;DHT22;18289;51.330;4.946;2024-01-11T00:26:45;-3.40;99.90
31695;DHT22;18289;51.330;4.946;2024-01-11T00:29:10;-3.40;99.90
31695;DHT22;18289;51.330;4.946;2024-01-11T00:31:36;-3.50;99.90
31695;DHT22;18289;51.330;4.946;2024-01-11T00:34:03;-3.50;99.90
31695;DHT22;18289;51.330;4.946;2024-01-11T00:36:29;-3.40;99.90
31695;DHT22;18289;51.330;4.946;2024-01-11T00:38:55;-3.40;99.90
31695;DHT22;18289;51.330;4.946;2024-01-11T00:41:20;-3.30;99.90
31695;DHT22;18289;51.330;4.946;2024-01-11T00:43:46;-3.30;99.90
31695;DHT22;18289;51.330;4.946;2024-01-11T00:46:12;-3.40;99.90
31695;DHT22;18289;51.330;4.946;2024-01-11T00:48:37;-3.50;99.90
31695;DHT22;18289;51.330;4.946;2024-01-11T00:51:06;-3.60;99.90
31695;DHT22;18289;51.330;4.946;2024-01-11T00:53:32;-3.60;99.90
31695;DHT22;18289;51.330;4.946;2024-01-11T00:55:59;-3.40;99.90
31695;DHT22;18289;51.330;4.946;2024-01-11T00:58:26;-3.60;99.90
31695;DHT22;18289;51.330;4.946;2024-01-11T01:00:52;-3.70;99.90
31695;DHT22;18289;51.330;4.946;2024-01-11T01:03:19;-3.60;99.90
31695;DHT22;18289;51.330;4.946;2024-01-11T01:05:45;-3.70;99.90
31695;DHT22;18289;51.330;4.946;2024-01-11T01:08:11;-3.70;99.90
31695;DHT22;18289;51.330;4.946;2024-01-11T01:10:37;-3.60;99.90
31695;DHT22;18289;51.330;4.946;2024-01-11T01:13:03;-3.60;99.90
31695;DHT22;18289;51.330;4.946;2024-01-11T01:15:29;-3.80;99.90
31695;DHT22;18289;51.330;4.946;2024-01-11T01:17:54;-3.80;99.90
31695;DHT22;18289;51.330;4.946;2024-01-11T01:20:20;-3.70;99.90
31695;DHT22;18289;51.330;4.946;2024-01-11T01:22:46;-3.70;99.90
31695;DHT22;18289;51.330;4.946;2024-01-11T01:25:12;-3.60;99.90
31695;DHT22;18289;51.330;4.946;2024-01-11T01:27:37;-3.70;99.90
31695;DHT22;18289;51.330;4.946;2024-01-11T01:30:03;-3.80;99.90
31695;DHT22;18289;51.330;4.946;2024-01-11T01:32:29;-3.80;99.90
31695;DHT22;18289;51.330;4.946;2024-01-11T01:34:55;-3.70;99.90
31695;DHT22;18289;51.330;4.946;2024-01-11T01:37:21;-3.80;99.90
31695;DHT22;18289;51.330;4.946;2024-01-11T01:39:47;-3.90;99.90
31695;DHT22;18289;51.330;4.946;2024-01-11T01:42:13;-3.90;99.90
31695;DHT22;18289;51.330;4.946;2024-01-11T01:44:38;-3.80;99.90
31695;DHT22;18289;51.330;4.946;2024-01-11T01:47:07;-3.90;99.90
31695;DHT22;18289;51.330;4.946;2024-01-11T01:49:35;-3.80;99.90
31695;DHT22;18289;51.330;4.946;2024-01-11T01:52:01;-3.80;99.90
31695;DHT22;18289;51.330;4.946;2024-01-11T01:54:28;-3.90;99.90
31695;DHT22;18289;51.330;4.946;2024-01-11T01:56:55;-3.80;99.90
31695;DHT22;18289;51.330;4.946;2024-01-11T01:59:23;-3.70;99.90
31695;DHT22;18289;51.330;4.946;2024-01-11T02:01:49;-3.90;99.90
31695;DHT22;18289;51.330;4.946;2024-01-11T02:04:15;-3.80;99.90
31695;DHT22;18289;51.330;4.946;2024-01-11T02:06:44;-3.80;99.90
31695;DHT22;18289;51.330;4.946;2024-01-11T02:09:11;-3.70;99.90
31695;DHT22;18289;51.330;4.946;2024-01-11T02:11:37;-3.70;99.90
31695;DHT22;18289;51.330;4.946;2024-01-11T02:14:04;-3.70;99.90
31695;DHT22;18289;51.330;4.946;2024-01-11T02:16:30;-3.80;99.90
31695;DHT22;18289;51.330;4.946;2024-01-11T02:18:56;-3.80;99.90
31695;DHT22;18289;51.330;4.946;2024-01-11T02:21:23;-3.70;99.90
31695;DHT22;18289;51.330;4.946;2024-01-11T02:24:03;-3.70;99.90
31695;DHT22;18289;51.330;4.946;2024-01-11T02:26:29;-3.90;99.90
31695;DHT22;18289;51.330;4.946;2024-01-11T02:28:55;-3.70;99.90
31695;DHT22;18289;51.330;4.946;2024-01-11T02:31:20;-3.80;99.90
31695;DHT22;18289;51.330;4.946;2024-01-11T02:33:47;-3.90;99.90
31695;DHT22;18289;51.330;4.946;2024-01-11T02:36:13;-3.80;99.90
31695;DHT22;18289;51.330;4.946;2024-01-11T02:38:40;-3.80;99.90
31695;DHT22;18289;51.330;4.946;2024-01-11T02:41:07;-3.90;99.90
31695;DHT22;18289;51.330;4.946;2024-01-11T02:43:34;-4.10;99.90
31695;DHT22;18289;51.330;4.946;2024-01-11T02:46:02;-4.00;99.90
31695;DHT22;18289;51.330;4.946;2024-01-11T02:48:31;-4.10;99.90
31695;DHT22;18289;51.330;4.946;2024-01-11T02:50:57;-4.10;99.90
31695;DHT22;18289;51.330;4.946;2024-01-11T02:53:23;-4.10;99.90
31695;DHT22;18289;51.330;4.946;2024-01-11T02:55:50;-4.10;99.90
31695;DHT22;18289;51.330;4.946;2024-01-11T02:58:16;-3.90;99.90
31695;DHT22;18289;51.330;4.946;2024-01-11T03:00:42;-3.90;99.90
31695;DHT22;18289;51.330;4.946;2024-01-11T03:03:08;-3.70;99.90
31695;DHT22;18289;51.330;4.946;2024-01-11T03:05:34;-4.00;99.90
31695;DHT22;18289;51.330;4.946;2024-01-11T03:07:59;-3.80;99.90
31695;DHT22;18289;51.330;4.946;2024-01-11T03:10:25;-3.90;99.90
31695;DHT22;18289;51.330;4.946;2024-01-11T03:12:51;-3.80;99.90
31695;DHT22;18289;51.330;4.946;2024-01-11T03:15:16;-3.80;99.90
31695;DHT22;18289;51.330;4.946;2024-01-11T03:17:42;-3.80;99.90
31695;DHT22;18289;51.330;4.946;2024-01-11T03:20:08;-3.80;99.90
31695;DHT22;18289;51.330;4.946;2024-01-11T03:22:34;-3.90;99.90
31695;DHT22;18289;51.330;4.946;2024-01-11T03:24:59;-3.80;99.90
31695;DHT22;18289;51.330;4.946;2024-01-11T03:29:53;-4.00;99.90
31695;DHT22;18289;51.330;4.946;2024-01-11T03:32:19;-4.00;99.90
31695;DHT22;18289;51.330;4.946;2024-01-11T03:34:44;-3.90;99.90
31695;DHT22;18289;51.330;4.946;2024-01-11T03:37:10;-3.90;99.90
31695;DHT22;18289;51.330;4.946;2024-01-11T03:39:35;-3.90;99.90
31695;DHT22;18289;51.330;4.946;2024-01-11T03:42:01;-4.10;99.90
31695;DHT22;18289;51.330;4.946;2024-01-11T03:44:30;-4.00;99.90
31695;DHT22;18289;51.330;4.946;2024-01-11T03:46:56;-4.00;99.90
31695;DHT22;18289;51.330;4.946;2024-01-11T03:49:22;-4.20;99.90
31695;DHT22;18289;51.330;4.946;2024-01-11T03:51:47;-4.00;99.90
31695;DHT22;18289;51.330;4.946;2024-01-11T03:54:13;-3.90;99.90
31695;DHT22;18289;51.330;4.946;2024-01-11T03:59:05;-4.10;99.90
31695;DHT22;18289;51.330;4.946;2024-01-11T04:01:32;-4.00;99.90
31695;DHT22;18289;51.330;4.946;2024-01-11T04:03:58;-4.00;99.90
31695;DHT22;18289;51.330;4.946;2024-01-11T04:06:23;-3.90;99.90
31695;DHT22;18289;51.330;4.946;2024-01-11T04:08:50;-3.90;99.90
31695;DHT22;18289;51.330;4.946;2024-01-11T04:11:16;-3.80;99.90
31695;DHT22;18289;51.330;4.946;2024-01-11T04:13:42;-4.00;99.90
31695;DHT22;18289;51.330;4.946;2024-01-11T04:16:08;-4.10;99.90
31695;DHT22;18289;51.330;4.946;2024-01-11T04:21:02;-4.20;99.90
31695;DHT22;18289;51.330;4.946;2024-01-11T04:23:27;-4.20;99.90
31695;DHT22;18289;51.330;4.946;2024-01-11T04:25:53;-4.00;99.90
31695;DHT22;18289;51.330;4.946;2024-01-11T04:28:19;-4.10;99.90
31695;DHT22;18289;51.330;4.946;2024-01-11T04:30:45;-4.10;99.90
31695;DHT22;18289;51.330;4.946;2024-01-11T04:33:10;-4.20;99.90
31695;DHT22;18289;51.330;4.946;2024-01-11T04:35:36;-4.30;99.90
31695;DHT22;18289;51.330;4.946;2024-01-11T04:38:02;-4.10;99.90
31695;DHT22;18289;51.330;4.946;2024-01-11T04:40:28;-4.30;99.90
31695;DHT22;18289;51.330;4.946;2024-01-11T04:42:54;-4.20;99.90
31695;DHT22;18289;51.330;4.946;2024-01-11T04:45:20;-4.20;99.90
31695;DHT22;18289;51.330;4.946;2024-01-11T04:47:45;-4.30;99.90
31695;DHT22;18289;51.330;4.946;2024-01-11T04:50:11;-4.20;99.90
31695;DHT22;18289;51.330;4.946;2024-01-11T04:52:37;-4.30;99.90
31695;DHT22;18289;51.330;4.946;2024-01-11T04:55:02;-4.40;99.90
31695;DHT22;18289;51.330;4.946;2024-01-11T04:57:28;-4.30;99.90
31695;DHT22;18289;51.330;4.946;2024-01-11T04:59:54;-4.20;99.90
31695;DHT22;18289;51.330;4.946;2024-01-11T05:02:22;-4.10;99.90
31695;DHT22;18289;51.330;4.946;2024-01-11T05:04:48;-4.10;99.90
31695;DHT22;18289;51.330;4.946;2024-01-11T05:07:14;-4.10;99.90
31695;DHT22;18289;51.330;4.946;2024-01-11T05:09:40;-4.20;99.90
31695;DHT22;18289;51.330;4.946;2024-01-11T05:12:06;-4.20;99.90
31695;DHT22;18289;51.330;4.946;2024-01-11T05:14:31;-4.30;99.90
31695;DHT22;18289;51.330;4.946;2024-01-11T05:16:57;-4.00;99.90
31695;DHT22;18289;51.330;4.946;2024-01-11T05:19:23;-4.00;99.90
31695;DHT22;18289;51.330;4.946;2024-01-11T05:21:49;-4.00;99.90
31695;DHT22;18289;51.330;4.946;2024-01-11T05:26:43;-4.10;99.90
31695;DHT22;18289;51.330;4.946;2024-01-11T05:29:08;-4.00;99.90
31695;DHT22;18289;51.330;4.946;2024-01-11T05:31:34;-4.00;99.90
31695;DHT22;18289;51.330;4.946;2024-01-11T05:34:00;-4.10;99.90
31695;DHT22;18289;51.330;4.946;2024-01-11T05:36:26;-4.10;99.90
31695;DHT22;18289;51.330;4.946;2024-01-11T05:38:51;-4.10;99.90
31695;DHT22;18289;51.330;4.946;2024-01-11T05:41:17;-4.10;99.90
31695;DHT22;18289;51.330;4.946;2024-01-11T05:43:43;-4.10;99.90
31695;DHT22;18289;51.330;4.946;2024-01-11T05:46:09;-4.30;99.90
31695;DHT22;18289;51.330;4.946;2024-01-11T05:48:35;-4.30;99.90
31695;DHT22;18289;51.330;4.946;2024-01-11T05:51:01;-4.20;99.90
31695;DHT22;18289;51.330;4.946;2024-01-11T05:53:27;-4.20;99.90
31695;DHT22;18289;51.330;4.946;2024-01-11T05:55:53;-4.20;99.90
31695;DHT22;18289;51.330;4.946;2024-01-11T05:58:19;-4.30;99.90
31695;DHT22;18289;51.330;4.946;2024-01-11T06:00:45;-4.40;99.90
31695;DHT22;18289;51.330;4.946;2024-01-11T06:03:14;-4.50;99.90
31695;DHT22;18289;51.330;4.946;2024-01-11T06:05:40;-4.50;99.90
31695;DHT22;18289;51.330;4.946;2024-01-11T06:08:05;-4.50;99.90
31695;DHT22;18289;51.330;4.946;2024-01-11T06:10:31;-4.30;99.90
31695;DHT22;18289;51.330;4.946;2024-01-11T06:12:57;-4.30;99.90
31695;DHT22;18289;51.330;4.946;2024-01-11T06:17:50;-4.60;99.90
31695;DHT22;18289;51.330;4.946;2024-01-11T06:20:16;-4.50;99.90
31695;DHT22;18289;51.330;4.946;2024-01-11T06:22:41;-4.50;99.90
31695;DHT22;18289;51.330;4.946;2024-01-11T06:25:08;-4.60;99.90
31695;DHT22;18289;51.330;4.946;2024-01-11T06:27:34;-4.70;99.90
31695;DHT22;18289;51.330;4.946;2024-01-11T06:29:59;-4.50;99.90
31695;DHT22;18289;51.330;4.946;2024-01-11T06:32:25;-4.50;99.90
31695;DHT22;18289;51.330;4.946;2024-01-11T06:34:51;-4.70;99.90
31695;DHT22;18289;51.330;4.946;2024-01-11T06:37:17;-4.60;99.90
31695;DHT22;18289;51.330;4.946;2024-01-11T06:39:42;-4.80;99.90
31695;DHT22;18289;51.330;4.946;2024-01-11T06:42:08;-4.60;99.90
31695;DHT22;18289;51.330;4.946;2024-01-11T06:44:34;-4.70;99.90
31695;DHT22;18289;51.330;4.946;2024-01-11T06:47:00;-4.70;99.90
31695;DHT22;18289;51.330;4.946;2024-01-11T06:49:27;-4.60;99.90
31695;DHT22;18289;51.330;4.946;2024-01-11T06:51:52;-4.60;99.90
31695;DHT22;18289;51.330;4.946;2024-01-11T06:54:18;-4.60;99.90
31695;DHT22;18289;51.330;4.946;2024-01-11T06:56:44;-4.80;99.90
31695;DHT22;18289;51.330;4.946;2024-01-11T06:59:10;-4.70;99.90
31695;DHT22;18289;51.330;4.946;2024-01-11T07:01:35;-4.90;99.90
31695;DHT22;18289;51.330;4.946;2024-01-11T07:04:01;-4.80;99.90
31695;DHT22;18289;51.330;4.946;2024-01-11T07:06:27;-4.70;99.90
31695;DHT22;18289;51.330;4.946;2024-01-11T07:08:53;-4.70;99.90
31695;DHT22;18289;51.330;4.946;2024-01-11T07:11:19;-4.80;99.90
31695;DHT22;18289;51.330;4.946;2024-01-11T07:13:44;-4.90;99.90
31695;DHT22;18289;51.330;4.946;2024-01-11T07:16:10;-4.90;99.90
31695;DHT22;18289;51.330;4.946;2024-01-11T07:18:36;-5.10;99.90
31695;DHT22;18289;51.330;4.946;2024-01-11T07:21:02;-5.10;99.90
31695;DHT22;18289;51.330;4.946;2024-01-11T07:23:27;-5.20;99.90
31695;DHT22;18289;51.330;4.946;2024-01-11T07:25:53;-5.00;99.90
31695;DHT22;18289;51.330;4.946;2024-01-11T07:28:19;-5.00;99.90
31695;DHT22;18289;51.330;4.946;2024-01-11T07:30:50;-5.10;99.90
31695;DHT22;18289;51.330;4.946;2024-01-11T07:33:16;-5.00;99.90
31695;DHT22;18289;51.330;4.946;2024-01-11T07:35:42;-5.30;99.90
31695;DHT22;18289;51.330;4.946;2024-01-11T07:38:07;-5.30;99.90
31695;DHT22;18289;51.330;4.946;2024-01-11T07:40:33;-5.10;99.90
31695;DHT22;18289;51.330;4.946;2024-01-11T07:42:59;-5.20;99.90
31695;DHT22;18289;51.330;4.946;2024-01-11T07:45:25;-5.40;99.90
31695;DHT22;18289;51.330;4.946;2024-01-11T07:47:50;-5.20;99.90
31695;DHT22;18289;51.330;4.946;2024-01-11T07:50:16;-5.10;99.90
31695;DHT22;18289;51.330;4.946;2024-01-11T07:52:41;-5.00;99.90
31695;DHT22;18289;51.330;4.946;2024-01-11T07:55:08;-4.90;99.90
31695;DHT22;18289;51.330;4.946;2024-01-11T07:57:35;-5.20;99.90
31695;DHT22;18289;51.330;4.946;2024-01-11T08:00:01;-5.10;99.90
31695;DHT22;18289;51.330;4.946;2024-01-11T08:02:28;-5.00;99.90
31695;DHT22;18289;51.330;4.946;2024-01-11T08:04:53;-5.00;99.90
31695;DHT22;18289;51.330;4.946;2024-01-11T08:07:19;-5.00;99.90
31695;DHT22;18289;51.330;4.946;2024-01-11T08:09:46;-4.80;99.90
31695;DHT22;18289;51.330;4.946;2024-01-11T08:12:12;-5.10;99.90
31695;DHT22;18289;51.330;4.946;2024-01-11T08:14:39;-4.80;99.90
31695;DHT22;18289;51.330;4.946;2024-01-11T08:17:05;-4.90;99.90
31695;DHT22;18289;51.330;4.946;2024-01-11T08:19:31;-5.10;99.90
31695;DHT22;18289;51.330;4.946;2024-01-11T08:21:58;-5.10;99.90
31695;DHT22;18289;51.330;4.946;2024-01-11T08:24:23;-4.80;99.90
31695;DHT22;18289;51.330;4.946;2024-01-11T08:26:50;-4.90;99.90
31695;DHT22;18289;51.330;4.946;2024-01-11T08:29:16;-4.70;99.90
31695;DHT22;18289;51.330;4.946;2024-01-11T08:34:12;-4.80;99.90
31695;DHT22;18289;51.330;4.946;2024-01-11T08:36:38;-4.90;99.90
31695;DHT22;18289;51.330;4.946;2024-01-11T08:39:05;-4.60;99.90
31695;DHT22;18289;51.330;4.946;2024-01-11T08:41:34;-4.60;99.90
31695;DHT22;18289;51.330;4.946;2024-01-11T08:44:09;-4.70;99.90
31695;DHT22;18289;51.330;4.946;2024-01-11T08:46:34;-4.50;99.90
31695;DHT22;18289;51.330;4.946;2024-01-11T08:49:01;-4.40;99.90
31695;DHT22;18289;51.330;4.946;2024-01-11T08:51:29;-4.50;99.90
31695;DHT22;18289;51.330;4.946;2024-01-11T08:53:54;-4.20;99.90
31695;DHT22;18289;51.330;4.946;2024-01-11T08:56:21;-4.20;99.90
31695;DHT22;18289;51.330;4.946;2024-01-11T08:58:47;-4.10;99.90
31695;DHT22;18289;51.330;4.946;2024-01-11T09:01:14;-4.10;99.90
31695;DHT22;18289;51.330;4.946;2024-01-11T09:03:40;-3.90;99.90
31695;DHT22;18289;51.330;4.946;2024-01-11T09:06:06;-3.50;99.90
31695;DHT22;18289;51.330;4.946;2024-01-11T09:08:32;-3.20;99.90
31695;DHT22;18289;51.330;4.946;2024-01-11T09:10:58;-2.80;99.90
31695;DHT22;18289;51.330;4.946;2024-01-11T09:13:25;-2.50;99.90
31695;DHT22;18289;51.330;4.946;2024-01-11T09:15:53;-2.10;99.90
31695;DHT22;18289;51.330;4.946;2024-01-11T09:18:20;-1.40;99.90
31695;DHT22;18289;51.330;4.946;2024-01-11T09:20:46;-1.50;99.90
31695;DHT22;18289;51.330;4.946;2024-01-11T09:23:12;-1.10;99.90
31695;DHT22;18289;51.330;4.946;2024-01-11T09:25:38;-1.00;99.90
31695;DHT22;18289;51.330;4.946;2024-01-11T09:28:04;-0.80;99.90
31695;DHT22;18289;51.330;4.946;2024-01-11T09:30:30;-0.80;99.90
31695;DHT22;18289;51.330;4.946;2024-01-11T09:32:56;-0.50;99.90
31695;DHT22;18289;51.330;4.946;2024-01-11T09:35:25;-0.30;99.90
31695;DHT22;18289;51.330;4.946;2024-01-11T09:37:51;-0.30;99.90
31695;DHT22;18289;51.330;4.946;2024-01-11T09:40:20;-0.60;99.90
31695;DHT22;18289;51.330;4.946;2024-01-11T09:42:46;-1.00;99.90
31695;DHT22;18289;51.330;4.946;2024-01-11T09:45:16;-1.00;99.90
31695;DHT22;18289;51.330;4.946;2024-01-11T09:47:43;-1.10;99.90
31695;DHT22;18289;51.330;4.946;2024-01-11T09:50:16;-1.40;99.90
31695;DHT22;18289;51.330;4.946;2024-01-11T09:52:49;-1.60;99.90
31695;DHT22;18289;51.330;4.946;2024-01-11T09:55:16;-1.00;99.90
31695;DHT22;18289;51.330;4.946;2024-01-11T09:57:47;-0.80;99.90
31695;DHT22;18289;51.330;4.946;2024-01-11T10:02:41;0.00;99.90
31695;DHT22;18289;51.330;4.946;2024-01-11T10:05:06;-0.10;99.90
31695;DHT22;18289;51.330;4.946;2024-01-11T10:07:34;-0.20;99.90
31695;DHT22;18289;51.330;4.946;2024-01-11T10:10:00;-0.20;99.90
31695;DHT22;18289;51.330;4.946;2024-01-11T10:12:30;0.10;99.90
31695;DHT22;18289;51.330;4.946;2024-01-11T10:15:05;0.00;99.90
31695;DHT22;18289;51.330;4.946;2024-01-11T10:17:31;0.50;99.90
31695;DHT22;18289;51.330;4.946;2024-01-11T10:19:57;0.90;99.90
31695;DHT22;18289;51.330;4.946;2024-01-11T10:22:24;1.20;99.90
31695;DHT22;18289;51.330;4.946;2024-01-11T10:24:50;1.50;99.90
31695;DHT22;18289;51.330;4.946;2024-01-11T10:27:16;1.70;99.90
31695;DHT22;18289;51.330;4.946;2024-01-11T10:29:41;1.50;99.90
31695;DHT22;18289;51.330;4.946;2024-01-11T10:32:09;1.50;99.90
31695;DHT22;18289;51.330;4.946;2024-01-11T10:34:35;1.90;99.90
31695;DHT22;18289;51.330;4.946;2024-01-11T10:37:02;2.30;99.90
31695;DHT22;18289;51.330;4.946;2024-01-11T10:39:30;3.40;99.90
31695;DHT22;18289;51.330;4.946;2024-01-11T10:42:18;3.50;99.90
31695;DHT22;18289;51.330;4.946;2024-01-11T10:44:46;3.20;99.90
31695;DHT22;18289;51.330;4.946;2024-01-11T10:47:14;2.80;99.90
31695;DHT22;18289;51.330;4.946;2024-01-11T10:49:41;2.60;99.90
31695;DHT22;18289;51.330;4.946;2024-01-11T10:52:12;2.30;99.90
31695;DHT22;18289;51.330;4.946;2024-01-11T10:54:38;1.60;99.90
31695;DHT22;18289;51.330;4.946;2024-01-11T10:57:05;1.30;99.90
31695;DHT22;18289;51.330;4.946;2024-01-11T10:59:34;1.80;99.90
31695;DHT22;18289;51.330;4.946;2024-01-11T11:02:04;2.20;99.90
31695;DHT22;18289;51.330;4.946;2024-01-11T11:04:32;2.40;99.90
31695;DHT22;18289;51.330;4.946;2024-01-11T11:07:01;2.70;99.90
31695;DHT22;18289;51.330;4.946;2024-01-11T11:09:28;3.70;99.90
31695;DHT22;18289;51.330;4.946;2024-01-11T11:11:59;4.50;99.90
31695;DHT22;18289;51.330;4.946;2024-01-11T11:14:25;5.00;99.90
31695;DHT22;18289;51.330;4.946;2024-01-11T11:16:51;5.60;99.90
31695;DHT22;18289;51.330;4.946;2024-01-11T11:19:21;6.50;99.90
31695;DHT22;18289;51.330;4.946;2024-01-11T11:21:48;7.30;99.90
31695;DHT22;18289;51.330;4.946;2024-01-11T11:24:16;8.20;99.90
31695;DHT22;18289;51.330;4.946;2024-01-11T11:26:44;8.50;99.90
31695;DHT22;18289;51.330;4.946;2024-01-11T11:29:10;9.00;99.90
31695;DHT22;18289;51.330;4.946;2024-01-11T11:31:44;9.40;99.90
31695;DHT22;18289;51.330;4.946;2024-01-11T11:34:13;10.00;99.90
31695;DHT22;18289;51.330;4.946;2024-01-11T11:36:42;10.00;99.90
31695;DHT22;18289;51.330;4.946;2024-01-11T11:39:11;9.30;99.90
31695;DHT22;18289;51.330;4.946;2024-01-11T11:41:37;10.40;99.90
31695;DHT22;18289;51.330;4.946;2024-01-11T11:44:04;10.90;99.90
31695;DHT22;18289;51.330;4.946;2024-01-11T11:46:31;10.60;99.90
31695;DHT22;18289;51.330;4.946;2024-01-11T11:48:57;10.60;99.90
31695;DHT22;18289;51.330;4.946;2024-01-11T11:51:24;10.70;99.90
31695;DHT22;18289;51.330;4.946;2024-01-11T11:53:51;10.50;99.90
31695;DHT22;18289;51.330;4.946;2024-01-11T11:56:23;11.80;99.90
31695;DHT22;18289;51.330;4.946;2024-01-11T11:58:49;12.30;99.90
31695;DHT22;18289;51.330;4.946;2024-01-11T12:01:17;12.30;98.60
31695;DHT22;18289;51.330;4.946;2024-01-11T12:03:44;11.10;94.60
31695;DHT22;18289;51.330;4.946;2024-01-11T12:06:15;12.10;98.50
31695;DHT22;18289;51.330;4.946;2024-01-11T12:08:42;11.60;93.30
31695;DHT22;18289;51.330;4.946;2024-01-11T12:11:09;11.60;94.80
31695;DHT22;18289;51.330;4.946;2024-01-11T12:13:35;11.00;91.30
31695;DHT22;18289;51.330;4.946;2024-01-11T12:16:01;9.80;91.40
31695;DHT22;18289;51.330;4.946;2024-01-11T12:18:27;9.20;93.30
31695;DHT22;18289;51.330;4.946;2024-01-11T12:20:53;9.10;94.20
31695;DHT22;18289;51.330;4.946;2024-01-11T12:23:19;8.40;93.50
31695;DHT22;18289;51.330;4.946;2024-01-11T12:25:45;8.40;93.50
31695;DHT22;18289;51.330;4.946;2024-01-11T12:28:11;8.10;93.40
31695;DHT22;18289;51.330;4.946;2024-01-11T12:30:38;7.30;93.20
31695;DHT22;18289;51.330;4.946;2024-01-11T12:33:04;7.20;94.10
31695;DHT22;18289;51.330;4.946;2024-01-11T12:35:31;6.50;94.70
31695;DHT22;18289;51.330;4.946;2024-01-11T12:38:04;6.60;95.00
31695;DHT22;18289;51.330;4.946;2024-01-11T12:40:33;6.20;95.30
31695;DHT22;18289;51.330;4.946;2024-01-11T12:43:06;5.90;94.40
31695;DHT22;18289;51.330;4.946;2024-01-11T12:45:33;5.00;96.20
31695;DHT22;18289;51.330;4.946;2024-01-11T12:47:59;4.70;96.40
31695;DHT22;18289;51.330;4.946;2024-01-11T12:50:26;4.10;97.00
31695;DHT22;18289;51.330;4.946;2024-01-11T12:53:06;3.70;97.60
31695;DHT22;18289;51.330;4.946;2024-01-11T12:55:32;3.60;98.10
31695;DHT22;18289;51.330;4.946;2024-01-11T12:58:08;3.00;98.40
31695;DHT22;18289;51.330;4.946;2024-01-11T13:00:38;2.80;99.20
31695;DHT22;18289;51.330;4.946;2024-01-11T13:03:04;2.70;99.70
31695;DHT22;18289;51.330;4.946;2024-01-11T13:05:31;2.70;99.70
31695;DHT22;18289;51.330;4.946;2024-01-11T13:08:09;2.60;99.90
31695;DHT22;18289;51.330;4.946;2024-01-11T13:10:36;2.40;99.90
31695;DHT22;18289;51.330;4.946;2024-01-11T13:15:30;2.10;99.90
31695;DHT22;18289;51.330;4.946;2024-01-11T13:17:57;1.80;99.90
31695;DHT22;18289;51.330;4.946;2024-01-11T13:20:23;1.90;99.90
31695;DHT22;18289;51.330;4.946;2024-01-11T13:23:00;1.80;99.90
31695;DHT22;18289;51.330;4.946;2024-01-11T13:28:03;1.90;99.90
31695;DHT22;18289;51.330;4.946;2024-01-11T13:30:29;2.40;99.90
31695;DHT22;18289;51.330;4.946;2024-01-11T13:32:55;3.00;99.90
31695;DHT22;18289;51.330;4.946;2024-01-11T13:35:21;3.10;99.90
31695;DHT22;18289;51.330;4.946;2024-01-11T13:37:47;2.80;99.90
31695;DHT22;18289;51.330;4.946;2024-01-11T13:40:12;2.40;99.90
31695;DHT22;18289;51.330;4.946;2024-01-11T13:42:39;2.40;99.90
31695;DHT22;18289;51.330;4.946;2024-01-11T13:45:05;2.10;99.90
31695;DHT22;18289;51.330;4.946;2024-01-11T13:47:34;2.00;99.90
31695;DHT22;18289;51.330;4.946;2024-01-11T13:50:00;1.90;99.90
31695;DHT22;18289;51.330;4.946;2024-01-11T13:52:26;1.80;99.90
31695;DHT22;18289;51.330;4.946;2024-01-11T13:54:52;1.70;99.90
31695;DHT22;18289;51.330;4.946;2024-01-11T13:57:18;1.70;99.90
31695;DHT22;18289;51.330;4.946;2024-01-11T13:59:43;1.50;99.90
31695;DHT22;18289;51.330;4.946;2024-01-11T14:02:09;1.50;99.90
31695;DHT22;18289;51.330;4.946;2024-01-11T14:04:35;1.30;99.90
31695;DHT22;18289;51.330;4.946;2024-01-11T14:07:01;1.30;99.90
31695;DHT22;18289;51.330;4.946;2024-01-11T14:09:28;1.30;99.90
31695;DHT22;18289;51.330;4.946;2024-01-11T14:11:54;1.40;99.90
31695;DHT22;18289;51.330;4.946;2024-01-11T14:14:20;1.50;99.90
31695;DHT22;18289;51.330;4.946;2024-01-11T14:16:46;1.40;99.90
31695;DHT22;18289;51.330;4.946;2024-01-11T14:19:12;1.70;99.90
31695;DHT22;18289;51.330;4.946;2024-01-11T14:21:38;1.50;99.90
31695;DHT22;18289;51.330;4.946;2024-01-11T14:24:04;1.40;99.90
31695;DHT22;18289;51.330;4.946;2024-01-11T14:26:31;1.30;99.90
31695;DHT22;18289;51.330;4.946;2024-01-11T14:28:58;1.50;99.90
31695;DHT22;18289;51.330;4.946;2024-01-11T14:31:24;1.40;99.90
31695;DHT22;18289;51.330;4.946;2024-01-11T14:33:50;1.50;99.90
31695;DHT22;18289;51.330;4.946;2024-01-11T14:36:16;1.60;99.90
31695;DHT22;18289;51.330;4.946;2024-01-11T14:38:42;1.80;99.90
31695;DHT22;18289;51.330;4.946;2024-01-11T14:41:09;1.70;99.90
31695;DHT22;18289;51.330;4.946;2024-01-11T14:43:37;1.70;99.90
31695;DHT22;18289;51.330;4.946;2024-01-11T14:46:03;1.70;99.90
31695;DHT22;18289;51.330;4.946;2024-01-11T14:48:30;1.80;99.90
31695;DHT22;18289;51.330;4.946;2024-01-11T14:50:58;1.50;99.90
31695;DHT22;18289;51.330;4.946;2024-01-11T14:53:24;1.40;99.90
31695;DHT22;18289;51.330;4.946;2024-01-11T14:55:50;1.50;99.90
31695;DHT22;18289;51.330;4.946;2024-01-11T14:58:17;1.40;99.90
31695;DHT22;18289;51.330;4.946;2024-01-11T15:00:43;1.50;99.90
31695;DHT22;18289;51.330;4.946;2024-01-11T15:03:09;1.50;99.90
31695;DHT22;18289;51.330;4.946;2024-01-11T15:05:34;1.50;99.90
31695;DHT22;18289;51.330;4.946;2024-01-11T15:08:01;1.50;99.90
31695;DHT22;18289;51.330;4.946;2024-01-11T15:10:27;1.50;99.90
31695;DHT22;18289;51.330;4.946;2024-01-11T15:12:53;1.60;99.90
31695;DHT22;18289;51.330;4.946;2024-01-11T15:15:19;1.40;99.90
31695;DHT22;18289;51.330;4.946;2024-01-11T15:17:44;1.40;99.90
31695;DHT22;18289;51.330;4.946;2024-01-11T15:20:10;1.50;99.90
31695;DHT22;18289;51.330;4.946;2024-01-11T15:22:36;1.40;99.90
31695;DHT22;18289;51.330;4.946;2024-01-11T15:25:02;1.40;99.90
31695;DHT22;18289;51.330;4.946;2024-01-11T15:27:28;1.60;99.90
31695;DHT22;18289;51.330;4.946;2024-01-11T15:29:55;1.50;99.90
31695;DHT22;18289;51.330;4.946;2024-01-11T15:32:20;1.50;99.90
31695;DHT22;18289;51.330;4.946;2024-01-11T15:34:47;1.60;99.90
31695;DHT22;18289;51.330;4.946;2024-01-11T15:37:13;1.50;99.90
31695;DHT22;18289;51.330;4.946;2024-01-11T15:39:39;1.50;99.90
31695;DHT22;18289;51.330;4.946;2024-01-11T15:42:05;1.50;99.90
31695;DHT22;18289;51.330;4.946;2024-01-11T15:44:31;1.60;99.90
31695;DHT22;18289;51.330;4.946;2024-01-11T15:46:59;1.70;99.90
31695;DHT22;18289;51.330;4.946;2024-01-11T15:49:26;1.50;99.90
31695;DHT22;18289;51.330;4.946;2024-01-11T15:51:52;1.50;99.90
31695;DHT22;18289;51.330;4.946;2024-01-11T15:54:17;1.50;99.90
31695;DHT22;18289;51.330;4.946;2024-01-11T15:56:45;1.50;99.90